sensor_id;sensor_type;location;lat;lon;timestamp;pressure;altitude;pressure_sealevel;temperature;humidity
14293;BME280;62290;59.420;17.842;2023-08-24T00:01:47;100904.53;;;24.90;49.85
14293;BME280;62290;59.420;17.842;2023-08-24T00:04:15;100903.69;;;24.89;49.67
14293;BME280;62290;59.420;17.842;2023-08-24T00:06:43;100906.41;;;24.89;50.01
14293;BME280;62290;59.420;17.842;2023-08-24T00:09:11;100894.44;;;24.82;50.05
14293;BME280;62290;59.420;17.842;2023-08-24T00:11:39;100902.84;;;24.89;50.12
14293;BME280;62290;59.420;17.842;2023-08-24T00:14:07;100901.97;;;24.88;49.83
14293;BME280;62290;59.420;17.842;2023-08-24T00:16:35;100909.22;;;24.88;49.78
14293;BME280;62290;59.420;17.842;2023-08-24T00:19:04;100909.09;;;24.89;50.18
14293;BME280;62290;59.420;17.842;2023-08-24T00:21:33;100906.66;;;24.86;49.94
14293;BME280;62290;59.420;17.842;2023-08-24T00:24:01;100874.09;;;24.69;50.24
14293;BME280;62290;59.420;17.842;2023-08-24T00:26:29;100910.34;;;24.85;49.94
14293;BME280;62290;59.420;17.842;2023-08-24T00:28:57;100895.84;;;24.77;50.03
14293;BME280;62290;59.420;17.842;2023-08-24T00:31:25;100905.94;;;24.84;50.17
14293;BME280;62290;59.420;17.842;2023-08-24T00:33:53;100905.22;;;24.82;50.04
14293;BME280;62290;59.420;17.842;2023-08-24T00:36:25;100905.22;;;24.82;50.30
14293;BME280;62290;59.420;17.842;2023-08-24T00:38:53;100898.66;;;24.75;50.21
14293;BME280;62290;59.420;17.842;2023-08-24T00:41:21;100910.75;;;24.81;50.41
14293;BME280;62290;59.420;17.842;2023-08-24T00:43:51;100907.19;;;24.80;50.03
14293;BME280;62290;59.420;17.842;2023-08-24T00:46:21;100905.38;;;24.81;49.92
14293;BME280;62290;59.420;17.842;2023-08-24T00:48:50;100909.91;;;24.80;49.99
14293;BME280;62290;59.420;17.842;2023-08-24T00:51:18;100912.59;;;24.80;50.08
14293;BME280;62290;59.420;17.842;2023-08-24T00:53:48;100914.31;;;24.81;50.21
14293;BME280;62290;59.420;17.842;2023-08-24T00:56:16;100910.75;;;24.81;50.19
14293;BME280;62290;59.420;17.842;2023-08-24T00:58:47;100907.19;;;24.80;50.30
14293;BME280;62290;59.420;17.842;2023-08-24T01:01:15;100903.53;;;24.81;49.78
14293;BME280;62290;59.420;17.842;2023-08-24T01:03:43;100908.91;;;24.81;50.12
14293;BME280;62290;59.420;17.842;2023-08-24T01:06:11;100905.53;;;24.79;49.89
14293;BME280;62290;59.420;17.842;2023-08-24T01:08:40;100908.91;;;24.81;50.09
14293;BME280;62290;59.420;17.842;2023-08-24T01:11:14;100905.22;;;24.82;49.96
14293;BME280;62290;59.420;17.842;2023-08-24T01:13:47;100908.91;;;24.81;50.10
14293;BME280;62290;59.420;17.842;2023-08-24T01:16:20;100901.81;;;24.80;49.67
14293;BME280;62290;59.420;17.842;2023-08-24T01:18:55;100913.44;;;24.81;49.81
14293;BME280;62290;59.420;17.842;2023-08-24T01:21:24;100911.72;;;24.80;50.26
14293;BME280;62290;59.420;17.842;2023-08-24T01:23:57;100905.53;;;24.79;50.02
14293;BME280;62290;59.420;17.842;2023-08-24T01:26:32;100907.19;;;24.80;49.94
14293;BME280;62290;59.420;17.842;2023-08-24T01:29:01;100903.66;;;24.80;49.89
14293;BME280;62290;59.420;17.842;2023-08-24T01:31:30;100911.72;;;24.80;49.82
14293;BME280;62290;59.420;17.842;2023-08-24T01:33:58;100894.38;;;24.73;49.83
14293;BME280;62290;59.420;17.842;2023-08-24T01:36:26;100901.81;;;24.80;49.82
14293;BME280;62290;59.420;17.842;2023-08-24T01:38:59;100905.53;;;24.79;50.15
14293;BME280;62290;59.420;17.842;2023-08-24T01:41:35;100910.06;;;24.79;49.81
14293;BME280;62290;59.420;17.842;2023-08-24T01:44:06;100909.19;;;24.78;49.82
14293;BME280;62290;59.420;17.842;2023-08-24T01:46:36;100899.34;;;24.77;50.07
14293;BME280;62290;59.420;17.842;2023-08-24T01:49:05;100905.59;;;24.78;49.92
14293;BME280;62290;59.420;17.842;2023-08-24T01:51:35;100896.66;;;24.77;49.93
14293;BME280;62290;59.420;17.842;2023-08-24T01:54:03;100906.50;;;24.78;49.76
14293;BME280;62290;59.420;17.842;2023-08-24T01:56:32;100900.38;;;24.76;49.86
14293;BME280;62290;59.420;17.842;2023-08-24T01:59:01;100909.31;;;24.77;49.38
14293;BME280;62290;59.420;17.842;2023-08-24T02:01:29;100907.59;;;24.76;49.93
14293;BME280;62290;59.420;17.842;2023-08-24T02:03:57;100903.06;;;24.76;49.77
14293;BME280;62290;59.420;17.842;2023-08-24T02:06:26;100900.38;;;24.76;49.42
14293;BME280;62290;59.420;17.842;2023-08-24T02:08:54;100898.66;;;24.75;49.99
14293;BME280;62290;59.420;17.842;2023-08-24T02:11:23;100905.00;;;24.74;49.82
14293;BME280;62290;59.420;17.842;2023-08-24T02:13:51;100894.22;;;24.74;49.90
14293;BME280;62290;59.420;17.842;2023-08-24T02:16:20;100898.66;;;24.75;49.45
14293;BME280;62290;59.420;17.842;2023-08-24T02:18:50;100899.63;;;24.74;49.71
14293;BME280;62290;59.420;17.842;2023-08-24T02:21:18;100895.25;;;24.73;49.40
14293;BME280;62290;59.420;17.842;2023-08-24T02:23:46;100893.53;;;24.72;49.87
14293;BME280;62290;59.420;17.842;2023-08-24T02:26:14;100875.31;;;24.55;49.51
14293;BME280;62290;59.420;17.842;2023-08-24T02:28:42;100900.91;;;24.70;49.53
14293;BME280;62290;59.420;17.842;2023-08-24T02:31:10;100897.34;;;24.70;49.89
14293;BME280;62290;59.420;17.842;2023-08-24T02:33:40;100897.34;;;24.70;50.00
14293;BME280;62290;59.420;17.842;2023-08-24T02:36:09;100891.94;;;24.70;49.63
14293;BME280;62290;59.420;17.842;2023-08-24T02:38:37;100890.28;;;24.69;49.83
14293;BME280;62290;59.420;17.842;2023-08-24T02:41:06;100890.28;;;24.69;49.91
14293;BME280;62290;59.420;17.842;2023-08-24T02:43:35;100886.97;;;24.65;50.14
14293;BME280;62290;59.420;17.842;2023-08-24T02:46:06;100884.13;;;24.57;49.95
14293;BME280;62290;59.420;17.842;2023-08-24T02:48:34;100899.47;;;24.66;50.01
14293;BME280;62290;59.420;17.842;2023-08-24T02:51:04;100904.88;;;24.66;50.16
14293;BME280;62290;59.420;17.842;2023-08-24T02:53:32;100902.44;;;24.63;49.69
14293;BME280;62290;59.420;17.842;2023-08-24T02:56:01;100905.69;;;24.67;49.71
14293;BME280;62290;59.420;17.842;2023-08-24T02:58:29;100901.31;;;24.66;49.83
14293;BME280;62290;59.420;17.842;2023-08-24T03:00:58;100900.31;;;24.67;49.68
14293;BME280;62290;59.420;17.842;2023-08-24T03:03:26;100893.22;;;24.66;49.69
14293;BME280;62290;59.420;17.842;2023-08-24T03:05:56;100904.88;;;24.66;49.76
14293;BME280;62290;59.420;17.842;2023-08-24T03:08:28;100899.47;;;24.66;49.78
14293;BME280;62290;59.420;17.842;2023-08-24T03:10:56;100898.75;;;24.64;49.68
14293;BME280;62290;59.420;17.842;2023-08-24T03:13:25;100902.19;;;24.66;49.63
14293;BME280;62290;59.420;17.842;2023-08-24T03:15:54;100886.97;;;24.65;50.00
14293;BME280;62290;59.420;17.842;2023-08-24T03:18:26;100889.69;;;24.65;49.98
14293;BME280;62290;59.420;17.842;2023-08-24T03:20:54;100884.28;;;24.65;50.01
14293;BME280;62290;59.420;17.842;2023-08-24T03:23:22;100875.34;;;24.65;50.08
14293;BME280;62290;59.420;17.842;2023-08-24T03:25:52;100883.31;;;24.66;50.03
14293;BME280;62290;59.420;17.842;2023-08-24T03:28:20;100882.44;;;24.66;49.92
14293;BME280;62290;59.420;17.842;2023-08-24T03:30:50;100878.03;;;24.65;50.01
14293;BME280;62290;59.420;17.842;2023-08-24T03:33:21;100876.34;;;24.64;50.09
14293;BME280;62290;59.420;17.842;2023-08-24T03:35:49;100880.03;;;24.63;50.04
14293;BME280;62290;59.420;17.842;2023-08-24T03:38:18;100881.88;;;24.62;50.07
14293;BME280;62290;59.420;17.842;2023-08-24T03:40:47;100886.38;;;24.62;49.99
14293;BME280;62290;59.420;17.842;2023-08-24T03:43:16;100886.38;;;24.62;50.18
14293;BME280;62290;59.420;17.842;2023-08-24T03:45:44;100880.19;;;24.61;50.14
14293;BME280;62290;59.420;17.842;2023-08-24T03:48:12;100881.00;;;24.62;50.01
14293;BME280;62290;59.420;17.842;2023-08-24T03:50:41;100881.16;;;24.60;50.13
14293;BME280;62290;59.420;17.842;2023-08-24T03:53:11;100881.28;;;24.58;50.16
14293;BME280;62290;59.420;17.842;2023-08-24T03:55:39;100884.97;;;24.58;49.87
14293;BME280;62290;59.420;17.842;2023-08-24T03:58:08;100883.97;;;24.58;50.02
14293;BME280;62290;59.420;17.842;2023-08-24T04:00:39;100874.19;;;24.58;49.89
14293;BME280;62290;59.420;17.842;2023-08-24T04:03:08;100875.88;;;24.58;49.85
14293;BME280;62290;59.420;17.842;2023-08-24T04:05:37;100876.75;;;24.59;49.99
14293;BME280;62290;59.420;17.842;2023-08-24T04:08:05;100881.28;;;24.58;49.84
14293;BME280;62290;59.420;17.842;2023-08-24T04:10:34;100871.34;;;24.59;49.83
14293;BME280;62290;59.420;17.842;2023-08-24T04:13:02;100875.88;;;24.58;49.81
14293;BME280;62290;59.420;17.842;2023-08-24T04:15:30;100876.75;;;24.59;50.07
14293;BME280;62290;59.420;17.842;2023-08-24T04:17:59;100883.69;;;24.62;49.72
14293;BME280;62290;59.420;17.842;2023-08-24T04:20:27;100890.94;;;24.61;49.87
14293;BME280;62290;59.420;17.842;2023-08-24T04:22:55;100885.56;;;24.61;49.92
14293;BME280;62290;59.420;17.842;2023-08-24T04:25:23;100858.00;;;24.48;50.07
14293;BME280;62290;59.420;17.842;2023-08-24T04:27:52;100881.88;;;24.62;50.02
14293;BME280;62290;59.420;17.842;2023-08-24T04:30:20;100880.03;;;24.63;49.82
14293;BME280;62290;59.420;17.842;2023-08-24T04:32:48;100891.78;;;24.62;49.54
14293;BME280;62290;59.420;17.842;2023-08-24T04:35:19;100887.25;;;24.62;49.82
14293;BME280;62290;59.420;17.842;2023-08-24T04:37:47;100888.09;;;24.63;49.50
14293;BME280;62290;59.420;17.842;2023-08-24T04:40:15;100882.41;;;24.56;49.89
14293;BME280;62290;59.420;17.842;2023-08-24T04:42:43;100891.78;;;24.62;49.75
14293;BME280;62290;59.420;17.842;2023-08-24T04:45:11;100881.88;;;24.62;50.06
14293;BME280;62290;59.420;17.842;2023-08-24T04:47:39;100826.44;;;24.29;49.94
14293;BME280;62290;59.420;17.842;2023-08-24T04:50:08;100881.88;;;24.62;49.82
14293;BME280;62290;59.420;17.842;2023-08-24T04:52:37;100881.00;;;24.62;49.94
14293;BME280;62290;59.420;17.842;2023-08-24T04:55:06;100883.69;;;24.62;50.00
14293;BME280;62290;59.420;17.842;2023-08-24T04:57:35;100885.56;;;24.61;49.96
14293;BME280;62290;59.420;17.842;2023-08-24T05:00:04;100880.19;;;24.61;49.67
14293;BME280;62290;59.420;17.842;2023-08-24T05:02:32;100888.38;;;24.60;50.12
14293;BME280;62290;59.420;17.842;2023-08-24T05:05:01;100890.94;;;24.61;50.16
14293;BME280;62290;59.420;17.842;2023-08-24T05:07:29;100863.09;;;24.51;49.89
14293;BME280;62290;59.420;17.842;2023-08-24T05:09:58;100883.84;;;24.60;49.63
14293;BME280;62290;59.420;17.842;2023-08-24T05:12:26;100886.53;;;24.60;49.88
14293;BME280;62290;59.420;17.842;2023-08-24T05:14:56;100890.94;;;24.61;49.99
14293;BME280;62290;59.420;17.842;2023-08-24T05:17:24;100887.53;;;24.59;49.78
14293;BME280;62290;59.420;17.842;2023-08-24T05:19:53;100880.44;;;24.58;49.78
14293;BME280;62290;59.420;17.842;2023-08-24T05:22:21;100885.94;;;24.56;49.74
14293;BME280;62290;59.420;17.842;2023-08-24T05:24:49;100885.84;;;24.58;50.49
14293;BME280;62290;59.420;17.842;2023-08-24T05:27:19;100873.06;;;24.60;50.92
14293;BME280;62290;59.420;17.842;2023-08-24T05:29:47;100882.88;;;24.61;50.74
14293;BME280;62290;59.420;17.842;2023-08-24T05:32:15;100888.69;;;24.66;51.53
14293;BME280;62290;59.420;17.842;2023-08-24T05:34:44;100893.78;;;24.69;51.15
14293;BME280;62290;59.420;17.842;2023-08-24T05:37:12;100887.56;;;24.69;50.99
14293;BME280;62290;59.420;17.842;2023-08-24T05:39:40;100884.13;;;24.67;51.22
14293;BME280;62290;59.420;17.842;2023-08-24T05:42:08;100877.19;;;24.64;50.66
14293;BME280;62290;59.420;17.842;2023-08-24T05:44:38;100880.72;;;24.65;50.53
14293;BME280;62290;59.420;17.842;2023-08-24T05:47:06;100885.25;;;24.64;50.36
14293;BME280;62290;59.420;17.842;2023-08-24T05:49:34;100877.59;;;24.60;50.24
14293;BME280;62290;59.420;17.842;2023-08-24T05:52:03;100895.47;;;24.61;50.26
14293;BME280;62290;59.420;17.842;2023-08-24T05:54:31;100889.22;;;24.60;50.20
14293;BME280;62290;59.420;17.842;2023-08-24T05:56:59;100892.91;;;24.59;50.26
14293;BME280;62290;59.420;17.842;2023-08-24T05:59:27;100876.44;;;24.52;50.27
14293;BME280;62290;59.420;17.842;2023-08-24T06:01:57;100892.03;;;24.58;50.28
14293;BME280;62290;59.420;17.842;2023-08-24T06:04:25;100887.66;;;24.58;50.38
14293;BME280;62290;59.420;17.842;2023-08-24T06:06:53;100896.59;;;24.58;50.36
14293;BME280;62290;59.420;17.842;2023-08-24T06:09:21;100893.91;;;24.58;50.33
14293;BME280;62290;59.420;17.842;2023-08-24T06:11:49;100890.22;;;24.59;50.11
14293;BME280;62290;59.420;17.842;2023-08-24T06:14:16;100890.22;;;24.59;50.56
14293;BME280;62290;59.420;17.842;2023-08-24T06:16:44;100876.75;;;24.59;50.29
14293;BME280;62290;59.420;17.842;2023-08-24T06:19:14;100879.31;;;24.61;50.08
14293;BME280;62290;59.420;17.842;2023-08-24T06:21:42;100876.75;;;24.59;49.87
14293;BME280;62290;59.420;17.842;2023-08-24T06:24:10;100873.06;;;24.60;50.31
14293;BME280;62290;59.420;17.842;2023-08-24T06:26:38;100877.59;;;24.60;50.17
14293;BME280;62290;59.420;17.842;2023-08-24T06:29:06;100873.94;;;24.61;49.69
14293;BME280;62290;59.420;17.842;2023-08-24T06:31:34;100882.13;;;24.59;49.67
14293;BME280;62290;59.420;17.842;2023-08-24T06:34:02;100889.94;;;24.62;49.91
14293;BME280;62290;59.420;17.842;2023-08-24T06:36:31;100890.66;;;24.64;49.88
14293;BME280;62290;59.420;17.842;2023-08-24T06:38:59;100869.34;;;24.51;49.89
14293;BME280;62290;59.420;17.842;2023-08-24T06:41:32;100893.34;;;24.64;49.47
14293;BME280;62290;59.420;17.842;2023-08-24T06:44:06;100897.06;;;24.63;49.73
14293;BME280;62290;59.420;17.842;2023-08-24T06:46:34;100895.22;;;24.64;49.40
14293;BME280;62290;59.420;17.842;2023-08-24T06:49:02;100890.66;;;24.64;49.80
14293;BME280;62290;59.420;17.842;2023-08-24T06:51:32;100885.56;;;24.61;49.72
14293;BME280;62290;59.420;17.842;2023-08-24T06:54:00;100899.75;;;24.63;49.73
14293;BME280;62290;59.420;17.842;2023-08-24T06:56:29;100899.75;;;24.63;49.92
14293;BME280;62290;59.420;17.842;2023-08-24T06:58:57;100889.22;;;24.60;49.56
14293;BME280;62290;59.420;17.842;2023-08-24T07:01:25;100892.38;;;24.65;49.79
14293;BME280;62290;59.420;17.842;2023-08-24T07:03:53;100898.63;;;24.66;49.40
14293;BME280;62290;59.420;17.842;2023-08-24T07:06:21;100894.91;;;24.67;49.65
14293;BME280;62290;59.420;17.842;2023-08-24T07:08:51;100902.88;;;24.68;49.69
14293;BME280;62290;59.420;17.842;2023-08-24T07:11:19;100886.13;;;24.65;49.60
14293;BME280;62290;59.420;17.842;2023-08-24T07:13:47;100895.50;;;24.70;49.73
14293;BME280;62290;59.420;17.842;2023-08-24T07:16:16;100897.34;;;24.70;49.27
14293;BME280;62290;59.420;17.842;2023-08-24T07:18:45;100896.38;;;24.71;49.69
14293;BME280;62290;59.420;17.842;2023-08-24T07:21:13;100893.66;;;24.71;49.62
14293;BME280;62290;59.420;17.842;2023-08-24T07:23:41;100907.16;;;24.71;49.63
14293;BME280;62290;59.420;17.842;2023-08-24T07:26:12;100897.22;;;24.71;49.82
14293;BME280;62290;59.420;17.842;2023-08-24T07:28:40;100896.22;;;24.72;49.18
14293;BME280;62290;59.420;17.842;2023-08-24T07:31:08;100900.75;;;24.72;49.38
14293;BME280;62290;59.420;17.842;2023-08-24T07:33:37;100901.59;;;24.72;49.27
14293;BME280;62290;59.420;17.842;2023-08-24T07:36:06;100901.59;;;24.72;49.73
14293;BME280;62290;59.420;17.842;2023-08-24T07:38:34;100823.31;;;24.24;49.57
14293;BME280;62290;59.420;17.842;2023-08-24T07:41:02;100910.56;;;24.73;49.14
14293;BME280;62290;59.420;17.842;2023-08-24T07:43:32;100906.88;;;24.74;49.49
14293;BME280;62290;59.420;17.842;2023-08-24T07:46:00;100912.38;;;24.72;49.39
14293;BME280;62290;59.420;17.842;2023-08-24T07:48:32;100920.47;;;24.72;49.21
14293;BME280;62290;59.420;17.842;2023-08-24T07:51:00;100915.94;;;24.73;49.19
14293;BME280;62290;59.420;17.842;2023-08-24T07:53:28;100921.34;;;24.73;49.42
14293;BME280;62290;59.420;17.842;2023-08-24T07:55:56;100919.63;;;24.72;49.15
14293;BME280;62290;59.420;17.842;2023-08-24T07:58:24;100926.00;;;24.71;49.46
14293;BME280;62290;59.420;17.842;2023-08-24T08:00:54;100922.47;;;24.70;49.45
14293;BME280;62290;59.420;17.842;2023-08-24T08:03:22;100925.88;;;24.72;49.26
14293;BME280;62290;59.420;17.842;2023-08-24T08:05:50;100926.00;;;24.71;49.32
14293;BME280;62290;59.420;17.842;2023-08-24T08:08:18;100927.69;;;24.72;49.59
14293;BME280;62290;59.420;17.842;2023-08-24T08:10:46;100924.88;;;24.73;49.56
14293;BME280;62290;59.420;17.842;2023-08-24T08:13:15;100934.66;;;24.74;49.50
14293;BME280;62290;59.420;17.842;2023-08-24T08:15:43;100933.84;;;24.74;49.21
14293;BME280;62290;59.420;17.842;2023-08-24T08:18:12;100926.56;;;24.74;49.40
14293;BME280;62290;59.420;17.842;2023-08-24T08:20:40;100927.44;;;24.75;49.29
14293;BME280;62290;59.420;17.842;2023-08-24T08:23:08;100918.03;;;24.69;49.17
14293;BME280;62290;59.420;17.842;2023-08-24T08:25:36;100885.22;;;24.45;49.20
14293;BME280;62290;59.420;17.842;2023-08-24T08:28:04;100936.16;;;24.78;49.41
14293;BME280;62290;59.420;17.842;2023-08-24T08:30:32;100942.41;;;24.79;49.29
14293;BME280;62290;59.420;17.842;2023-08-24T08:33:00;100947.63;;;24.80;49.21
14293;BME280;62290;59.420;17.842;2023-08-24T08:35:30;100936.72;;;24.82;49.26
14293;BME280;62290;59.420;17.842;2023-08-24T08:37:58;100930.47;;;24.81;49.39
14293;BME280;62290;59.420;17.842;2023-08-24T08:40:29;100938.31;;;24.84;49.45
14293;BME280;62290;59.420;17.842;2023-08-24T08:42:58;100938.31;;;24.84;49.42
14293;BME280;62290;59.420;17.842;2023-08-24T08:45:26;100936.44;;;24.85;49.02
14293;BME280;62290;59.420;17.842;2023-08-24T08:47:57;100942.56;;;24.87;49.30
14293;BME280;62290;59.420;17.842;2023-08-24T08:50:26;100937.03;;;24.88;49.11
14293;BME280;62290;59.420;17.842;2023-08-24T08:52:58;100941.44;;;24.89;49.18
14293;BME280;62290;59.420;17.842;2023-08-24T08:55:27;100930.66;;;24.89;49.15
14293;BME280;62290;59.420;17.842;2023-08-24T08:57:58;100943.00;;;24.92;49.00
14293;BME280;62290;59.420;17.842;2023-08-24T09:00:26;100931.38;;;24.91;48.83
14293;BME280;62290;59.420;17.842;2023-08-24T09:02:56;100943.88;;;24.92;49.00
14293;BME280;62290;59.420;17.842;2023-08-24T09:05:26;100943.00;;;24.92;48.85
14293;BME280;62290;59.420;17.842;2023-08-24T09:07:54;100946.69;;;24.91;48.94
14293;BME280;62290;59.420;17.842;2023-08-24T09:10:24;100942.16;;;24.91;49.18
14293;BME280;62290;59.420;17.842;2023-08-24T09:12:52;100935.03;;;24.90;49.12
14293;BME280;62290;59.420;17.842;2023-08-24T09:15:24;100943.28;;;24.89;48.76
14293;BME280;62290;59.420;17.842;2023-08-24T09:17:54;100946.94;;;24.88;49.00
14293;BME280;62290;59.420;17.842;2023-08-24T09:20:23;100938.00;;;24.87;49.36
14293;BME280;62290;59.420;17.842;2023-08-24T09:22:55;100938.88;;;24.88;49.16
14293;BME280;62290;59.420;17.842;2023-08-24T09:25:25;100932.75;;;24.86;49.76
14293;BME280;62290;59.420;17.842;2023-08-24T09:27:57;100939.00;;;24.86;49.45
14293;BME280;62290;59.420;17.842;2023-08-24T09:30:29;100932.75;;;24.86;49.52
14293;BME280;62290;59.420;17.842;2023-08-24T09:33:01;100931.91;;;24.85;49.62
14293;BME280;62290;59.420;17.842;2023-08-24T09:35:35;100934.59;;;24.85;49.47
14293;BME280;62290;59.420;17.842;2023-08-24T09:38:16;100932.75;;;24.86;49.82
14293;BME280;62290;59.420;17.842;2023-08-24T09:40:46;100925.53;;;24.86;49.86
14293;BME280;62290;59.420;17.842;2023-08-24T09:43:15;100929.09;;;24.87;49.90
14293;BME280;62290;59.420;17.842;2023-08-24T09:45:48;100895.50;;;24.70;49.68
14293;BME280;62290;59.420;17.842;2023-08-24T09:48:17;100936.16;;;24.88;49.76
14293;BME280;62290;59.420;17.842;2023-08-24T09:50:45;100935.03;;;24.90;49.83
14293;BME280;62290;59.420;17.842;2023-08-24T09:53:16;100925.97;;;24.91;50.39
14293;BME280;62290;59.420;17.842;2023-08-24T09:55:50;100925.69;;;24.94;51.16
14293;BME280;62290;59.420;17.842;2023-08-24T09:58:22;100931.97;;;24.95;51.43
14293;BME280;62290;59.420;17.842;2023-08-24T10:00:50;100928.97;;;24.98;51.62
14293;BME280;62290;59.420;17.842;2023-08-24T10:03:20;100923.44;;;24.99;51.35
14293;BME280;62290;59.420;17.842;2023-08-24T10:05:50;100920.59;;;25.01;51.64
14293;BME280;62290;59.420;17.842;2023-08-24T10:08:27;100921.59;;;25.00;51.36
14293;BME280;62290;59.420;17.842;2023-08-24T10:10:56;100926.69;;;25.03;50.74
14293;BME280;62290;59.420;17.842;2023-08-24T10:13:33;100928.28;;;25.05;50.62
14293;BME280;62290;59.420;17.842;2023-08-24T10:16:05;100924.59;;;25.06;50.86
14293;BME280;62290;59.420;17.842;2023-08-24T10:18:33;100915.63;;;25.06;50.77
14293;BME280;62290;59.420;17.842;2023-08-24T10:21:02;100918.91;;;25.09;50.22
14293;BME280;62290;59.420;17.842;2023-08-24T10:23:30;100918.06;;;25.09;50.56
14293;BME280;62290;59.420;17.842;2023-08-24T10:26:02;100916.06;;;25.11;50.17
14293;BME280;62290;59.420;17.842;2023-08-24T10:28:32;100910.69;;;25.11;50.50
14293;BME280;62290;59.420;17.842;2023-08-24T10:31:01;100915.09;;;25.12;49.94
14293;BME280;62290;59.420;17.842;2023-08-24T10:33:30;100911.53;;;25.11;50.29
14293;BME280;62290;59.420;17.842;2023-08-24T10:36:04;100910.56;;;25.12;49.73
14293;BME280;62290;59.420;17.842;2023-08-24T10:38:35;100905.28;;;25.11;49.61
14293;BME280;62290;59.420;17.842;2023-08-24T10:41:05;100888.25;;;25.01;49.61
14293;BME280;62290;59.420;17.842;2023-08-24T10:43:34;100909.84;;;25.10;49.32
14293;BME280;62290;59.420;17.842;2023-08-24T10:46:03;100907.28;;;25.09;49.30
14293;BME280;62290;59.420;17.842;2023-08-24T10:48:57;100899.06;;;25.10;49.22
14293;BME280;62290;59.420;17.842;2023-08-24T10:51:26;100909.84;;;25.10;49.43
14293;BME280;62290;59.420;17.842;2023-08-24T10:53:56;100895.63;;;25.08;48.67
14293;BME280;62290;59.420;17.842;2023-08-24T10:56:35;100898.31;;;25.08;48.58
14293;BME280;62290;59.420;17.842;2023-08-24T10:59:10;100909.97;;;25.09;48.58
14293;BME280;62290;59.420;17.842;2023-08-24T11:01:43;100907.44;;;25.07;48.51
14293;BME280;62290;59.420;17.842;2023-08-24T11:04:11;100905.59;;;25.08;48.53
14293;BME280;62290;59.420;17.842;2023-08-24T11:06:53;100889.41;;;25.08;49.01
14293;BME280;62290;59.420;17.842;2023-08-24T11:09:22;100899.34;;;25.07;48.63
14293;BME280;62290;59.420;17.842;2023-08-24T11:11:59;100903.59;;;25.10;48.79
14293;BME280;62290;59.420;17.842;2023-08-24T11:14:29;100902.03;;;25.07;48.86
14293;BME280;62290;59.420;17.842;2023-08-24T11:17:01;100897.50;;;25.08;48.94
14293;BME280;62290;59.420;17.842;2023-08-24T11:19:48;100898.31;;;25.08;48.75
14293;BME280;62290;59.420;17.842;2023-08-24T11:22:17;100898.31;;;25.08;48.84
14293;BME280;62290;59.420;17.842;2023-08-24T11:24:45;100895.50;;;25.10;48.50
14293;BME280;62290;59.420;17.842;2023-08-24T11:27:14;100890.13;;;25.10;48.48
14293;BME280;62290;59.420;17.842;2023-08-24T11:29:43;100893.94;;;25.07;48.52
14293;BME280;62290;59.420;17.842;2023-08-24T11:32:11;100889.41;;;25.08;48.21
14293;BME280;62290;59.420;17.842;2023-08-24T11:34:39;100887.53;;;25.08;48.31
14293;BME280;62290;59.420;17.842;2023-08-24T11:37:18;100885.69;;;25.09;48.40
14293;BME280;62290;59.420;17.842;2023-08-24T11:39:46;100888.56;;;25.07;48.72
14293;BME280;62290;59.420;17.842;2023-08-24T11:42:16;100885.59;;;25.10;48.46
14293;BME280;62290;59.420;17.842;2023-08-24T11:44:48;100858.16;;;24.96;48.42
14293;BME280;62290;59.420;17.842;2023-08-24T11:47:19;100883.16;;;25.07;48.71
14293;BME280;62290;59.420;17.842;2023-08-24T11:49:49;100882.31;;;25.07;48.64
14293;BME280;62290;59.420;17.842;2023-08-24T11:52:17;100880.47;;;25.07;48.09
14293;BME280;62290;59.420;17.842;2023-08-24T11:54:45;100893.78;;;25.09;48.35
14293;BME280;62290;59.420;17.842;2023-08-24T11:57:13;100880.03;;;25.02;47.98
14293;BME280;62290;59.420;17.842;2023-08-24T11:59:43;100886.56;;;25.09;47.70
14293;BME280;62290;59.420;17.842;2023-08-24T12:02:11;100886.56;;;25.09;47.77
14293;BME280;62290;59.420;17.842;2023-08-24T12:04:41;100884.72;;;25.10;48.03
14293;BME280;62290;59.420;17.842;2023-08-24T12:07:10;100886.56;;;25.09;47.62
14293;BME280;62290;59.420;17.842;2023-08-24T12:09:39;100882.03;;;25.10;47.68
14293;BME280;62290;59.420;17.842;2023-08-24T12:12:12;100878.31;;;25.11;47.30
14293;BME280;62290;59.420;17.842;2023-08-24T12:14:40;100882.03;;;25.10;47.37
14293;BME280;62290;59.420;17.842;2023-08-24T12:17:10;100884.72;;;25.10;47.49
14293;BME280;62290;59.420;17.842;2023-08-24T12:19:41;100874.78;;;25.10;47.73
14293;BME280;62290;59.420;17.842;2023-08-24T12:22:13;100866.69;;;25.10;47.14
14293;BME280;62290;59.420;17.842;2023-08-24T12:24:43;100872.94;;;25.11;47.43
14293;BME280;62290;59.420;17.842;2023-08-24T12:27:17;100877.34;;;25.12;47.24
14293;BME280;62290;59.420;17.842;2023-08-24T12:29:46;100874.78;;;25.10;46.95
14293;BME280;62290;59.420;17.842;2023-08-24T12:32:16;100864.84;;;25.11;47.12
14293;BME280;62290;59.420;17.842;2023-08-24T12:34:46;100872.94;;;25.11;47.18
14293;BME280;62290;59.420;17.842;2023-08-24T12:37:14;100868.38;;;25.11;46.66
14293;BME280;62290;59.420;17.842;2023-08-24T12:39:42;100868.38;;;25.11;46.70
14293;BME280;62290;59.420;17.842;2023-08-24T12:42:10;100865.00;;;25.09;46.63
14293;BME280;62290;59.420;17.842;2023-08-24T12:44:38;100872.09;;;25.10;46.59
14293;BME280;62290;59.420;17.842;2023-08-24T12:47:06;100839.84;;;24.99;46.96
14293;BME280;62290;59.420;17.842;2023-08-24T12:49:36;100859.44;;;25.11;46.57
14293;BME280;62290;59.420;17.842;2023-08-24T12:52:04;100862.13;;;25.11;46.78